<?xml version='1.0' encoding='UTF-8'?><gpx version="1.1" creator="JPX - https://github.com/jenetics/jpx" xmlns="http://www.topografix.com/GPX/1/1"><trk><trkseg><trkpt lat="41.9616304" lon="13.5373836"><ele>665.5</ele><time>2026-04-02T13:25:37.001Z</time></trkpt><trkpt lat="41.9617104" lon="13.5374091"><ele>665.0</ele><time>2026-04-02T13:25:39.002Z</time></trkpt><trkpt lat="41.961791" lon="13.5374268"><ele>664.5</ele><time>2026-04-02T13:25:41.001Z</time></trkpt><trkpt lat="41.9618723" lon="13.5374474"><ele>664.0</ele><time>2026-04-02T13:25:43.002Z</time></trkpt><trkpt lat="41.9619643" lon="13.5374562"><ele>663.5</ele><time>2026-04-02T13:25:45.002Z</time></trkpt><trkpt lat="41.962041" lon="13.5374773"><ele>663.0</ele><time>2026-04-02T13:25:48.002Z</time></trkpt><trkpt lat="41.9620698" lon="13.5375612"><ele>663.0</ele><time>2026-04-02T13:25:52.002Z</time></trkpt><trkpt lat="41.962041" lon="13.5376436"><ele>663.0</ele><time>2026-04-02T13:25:54.001Z</time></trkpt><trkpt lat="41.9620272" lon="13.5377727"><ele>663.0</ele><time>2026-04-02T13:25:56.002Z</time></trkpt><trkpt lat="41.9619848" lon="13.5379333"><ele>663.0</ele><time>2026-04-02T13:25:58.001Z</time></trkpt><trkpt lat="41.9619393" lon="13.5380862"><ele>663.0</ele><time>2026-04-02T13:26:00.002Z</time></trkpt><trkpt lat="41.9618933" lon="13.5382385"><ele>662.5999999999999</ele><time>2026-04-02T13:26:02.001Z</time></trkpt><trkpt lat="41.9618714" lon="13.5383188"><ele>662.1999999999999</ele><time>2026-04-02T13:26:03.002Z</time></trkpt><trkpt lat="41.9618471" lon="13.5384068"><ele>661.8</ele><time>2026-04-02T13:26:04.002Z</time></trkpt><trkpt lat="41.9618258" lon="13.5384956"><ele>661.4</ele><time>2026-04-02T13:26:05.001Z</time></trkpt><trkpt lat="41.9618027" lon="13.538577"><ele>661.0</ele><time>2026-04-02T13:26:06.002Z</time></trkpt><trkpt lat="41.9617259" lon="13.538807"><ele>661.4</ele><time>2026-04-02T13:26:09.001Z</time></trkpt><trkpt lat="41.9616793" lon="13.5389521"><ele>661.8</ele><time>2026-04-02T13:26:11.002Z</time></trkpt><trkpt lat="41.9616473" lon="13.5390279"><ele>662.1999999999999</ele><time>2026-04-02T13:26:12.002Z</time></trkpt><trkpt lat="41.9616139" lon="13.5391017"><ele>662.5999999999999</ele><time>2026-04-02T13:26:13.001Z</time></trkpt><trkpt lat="41.9615805" lon="13.5391736"><ele>663.0</ele><time>2026-04-02T13:26:14.002Z</time></trkpt><trkpt lat="41.9614771" lon="13.5393947"><ele>663.0</ele><time>2026-04-02T13:26:17.002Z</time></trkpt><trkpt lat="41.9614081" lon="13.5395375"><ele>663.0</ele><time>2026-04-02T13:26:19.002Z</time></trkpt><trkpt lat="41.9613281" lon="13.539698"><ele>663.0</ele><time>2026-04-02T13:26:21.002Z</time></trkpt><trkpt lat="41.961157" lon="13.5400299"><ele>662.8</ele><time>2026-04-02T13:26:25.002Z</time></trkpt><trkpt lat="41.9611174" lon="13.5401155"><ele>662.5999999999999</ele><time>2026-04-02T13:26:26.002Z</time></trkpt><trkpt lat="41.9610763" lon="13.5401981"><ele>662.4000000000001</ele><time>2026-04-02T13:26:27.002Z</time></trkpt><trkpt lat="41.9609953" lon="13.540357"><ele>662.2</ele><time>2026-04-02T13:26:29.002Z</time></trkpt><trkpt lat="41.9609097" lon="13.5405229"><ele>662.0</ele><time>2026-04-02T13:26:31.002Z</time></trkpt><trkpt lat="41.9608686" lon="13.5406096"><ele>662.8</ele><time>2026-04-02T13:26:32.001Z</time></trkpt><trkpt lat="41.9608301" lon="13.5407007"><ele>663.6</ele><time>2026-04-02T13:26:33.002Z</time></trkpt><trkpt lat="41.9607898" lon="13.5407916"><ele>664.4</ele><time>2026-04-02T13:26:34.002Z</time></trkpt><trkpt lat="41.9607517" lon="13.540886"><ele>665.1999999999999</ele><time>2026-04-02T13:26:35.001Z</time></trkpt><trkpt lat="41.9606734" lon="13.5410791"><ele>666.0</ele><time>2026-04-02T13:26:37.002Z</time></trkpt><trkpt lat="41.9606331" lon="13.5411756"><ele>665.0</ele><time>2026-04-02T13:26:38.002Z</time></trkpt><trkpt lat="41.960592" lon="13.5412689"><ele>664.0</ele><time>2026-04-02T13:26:39.002Z</time></trkpt><trkpt lat="41.9605142" lon="13.5414554"><ele>663.0</ele><time>2026-04-02T13:26:41.002Z</time></trkpt><trkpt lat="41.9603776" lon="13.5417721"><ele>663.0</ele><time>2026-04-02T13:26:45.001Z</time></trkpt><trkpt lat="41.9603407" lon="13.5418502"><ele>663.0</ele><time>2026-04-02T13:26:48.002Z</time></trkpt><trkpt lat="41.9603479" lon="13.5419486"><ele>663.0</ele><time>2026-04-02T13:26:52.001Z</time></trkpt><trkpt lat="41.9604155" lon="13.5419771"><ele>663.0</ele><time>2026-04-02T13:26:54.001Z</time></trkpt><trkpt lat="41.9605992" lon="13.5419764"><ele>663.0</ele><time>2026-04-02T13:26:57.002Z</time></trkpt><trkpt lat="41.9606657" lon="13.5419778"><ele>663.0</ele><time>2026-04-02T13:26:58.002Z</time></trkpt><trkpt lat="41.9607364" lon="13.5419775"><ele>663.0</ele><time>2026-04-02T13:26:59.002Z</time></trkpt><trkpt lat="41.9608877" lon="13.5419729"><ele>663.0</ele><time>2026-04-02T13:27:01.002Z</time></trkpt><trkpt lat="41.9610537" lon="13.5419714"><ele>663.0</ele><time>2026-04-02T13:27:03.002Z</time></trkpt><trkpt lat="41.9611367" lon="13.5419708"><ele>662.25</ele><time>2026-04-02T13:27:04.002Z</time></trkpt><trkpt lat="41.9612155" lon="13.5419681"><ele>661.5</ele><time>2026-04-02T13:27:05.002Z</time></trkpt><trkpt lat="41.9613757" lon="13.5419652"><ele>660.75</ele><time>2026-04-02T13:27:07.001Z</time></trkpt><trkpt lat="41.9614578" lon="13.541962"><ele>660.0</ele><time>2026-04-02T13:27:08.001Z</time></trkpt><trkpt lat="41.9616211" lon="13.5419517"><ele>659.4</ele><time>2026-04-02T13:27:10.001Z</time></trkpt><trkpt lat="41.961774" lon="13.5419584"><ele>658.8</ele><time>2026-04-02T13:27:12.002Z</time></trkpt><trkpt lat="41.9618486" lon="13.5419545"><ele>658.2</ele><time>2026-04-02T13:27:13.002Z</time></trkpt><trkpt lat="41.9619302" lon="13.5419495"><ele>657.6</ele><time>2026-04-02T13:27:14.002Z</time></trkpt><trkpt lat="41.9620068" lon="13.5419474"><ele>657.0</ele><time>2026-04-02T13:27:15.002Z</time></trkpt><trkpt lat="41.9621067" lon="13.5419453"><ele>657.0</ele><time>2026-04-02T13:27:16.002Z</time></trkpt><trkpt lat="41.9621981" lon="13.5419427"><ele>657.0</ele><time>2026-04-02T13:27:17.002Z</time></trkpt><trkpt lat="41.962574" lon="13.5419329"><ele>657.0</ele><time>2026-04-02T13:27:21.002Z</time></trkpt><trkpt lat="41.9627458" lon="13.541925"><ele>657.0</ele><time>2026-04-02T13:27:23.002Z</time></trkpt><trkpt lat="41.9628306" lon="13.5419176"><ele>657.0</ele><time>2026-04-02T13:27:24.001Z</time></trkpt><trkpt lat="41.9630257" lon="13.5419075"><ele>657.0</ele><time>2026-04-02T13:27:26.002Z</time></trkpt><trkpt lat="41.9631293" lon="13.5419096"><ele>657.0</ele><time>2026-04-02T13:27:27.002Z</time></trkpt><trkpt lat="41.9635955" lon="13.5418901"><ele>657.0</ele><time>2026-04-02T13:27:31.001Z</time></trkpt><trkpt lat="41.9637248" lon="13.5418911"><ele>657.0</ele><time>2026-04-02T13:27:32.002Z</time></trkpt><trkpt lat="41.9638552" lon="13.5418878"><ele>657.0</ele><time>2026-04-02T13:27:33.002Z</time></trkpt><trkpt lat="41.9639886" lon="13.5418824"><ele>657.0</ele><time>2026-04-02T13:27:34.002Z</time></trkpt><trkpt lat="41.9642628" lon="13.5418742"><ele>656.5</ele><time>2026-04-02T13:27:36.002Z</time></trkpt><trkpt lat="41.9644059" lon="13.5418671"><ele>656.0</ele><time>2026-04-02T13:27:37.002Z</time></trkpt><trkpt lat="41.9649621" lon="13.5418544"><ele>655.5</ele><time>2026-04-02T13:27:41.001Z</time></trkpt><trkpt lat="41.9651159" lon="13.5418476"><ele>655.0</ele><time>2026-04-02T13:27:42.002Z</time></trkpt><trkpt lat="41.9654137" lon="13.5418377"><ele>655.0</ele><time>2026-04-02T13:27:44.002Z</time></trkpt><trkpt lat="41.965866" lon="13.5418283"><ele>655.0</ele><time>2026-04-02T13:27:47.001Z</time></trkpt><trkpt lat="41.966478" lon="13.5418174"><ele>655.0</ele><time>2026-04-02T13:27:51.002Z</time></trkpt><trkpt lat="41.9666321" lon="13.5418187"><ele>655.0</ele><time>2026-04-02T13:27:52.002Z</time></trkpt><trkpt lat="41.9667866" lon="13.5418148"><ele>655.0</ele><time>2026-04-02T13:27:53.001Z</time></trkpt><trkpt lat="41.9669463" lon="13.5418078"><ele>654.6666666666667</ele><time>2026-04-02T13:27:54.002Z</time></trkpt><trkpt lat="41.967102" lon="13.5418012"><ele>654.3333333333334</ele><time>2026-04-02T13:27:55.002Z</time></trkpt><trkpt lat="41.9672553" lon="13.5418011"><ele>654.0</ele><time>2026-04-02T13:27:56.001Z</time></trkpt><trkpt lat="41.9677189" lon="13.541787"><ele>654.0</ele><time>2026-04-02T13:27:59.001Z</time></trkpt><trkpt lat="41.968034" lon="13.5417719"><ele>654.0</ele><time>2026-04-02T13:28:01.002Z</time></trkpt><trkpt lat="41.968188" lon="13.5417679"><ele>654.0</ele><time>2026-04-02T13:28:02.002Z</time></trkpt><trkpt lat="41.9683442" lon="13.5417645"><ele>654.0</ele><time>2026-04-02T13:28:03.001Z</time></trkpt><trkpt lat="41.9685013" lon="13.5417591"><ele>654.0</ele><time>2026-04-02T13:28:04.002Z</time></trkpt><trkpt lat="41.9686566" lon="13.5417589"><ele>653.6666666666666</ele><time>2026-04-02T13:28:05.002Z</time></trkpt><trkpt lat="41.968815" lon="13.5417583"><ele>653.3333333333333</ele><time>2026-04-02T13:28:06.001Z</time></trkpt><trkpt lat="41.9689668" lon="13.5417561"><ele>653.0</ele><time>2026-04-02T13:28:07.002Z</time></trkpt><trkpt lat="41.9691281" lon="13.5417545"><ele>652.5</ele><time>2026-04-02T13:28:08.002Z</time></trkpt><trkpt lat="41.9694363" lon="13.5417373"><ele>652.0</ele><time>2026-04-02T13:28:10.002Z</time></trkpt><trkpt lat="41.9695914" lon="13.5417316"><ele>652.0</ele><time>2026-04-02T13:28:11.001Z</time></trkpt><trkpt lat="41.9697469" lon="13.5417266"><ele>652.0</ele><time>2026-04-02T13:28:12.002Z</time></trkpt><trkpt lat="41.9702047" lon="13.5417028"><ele>652.3333333333334</ele><time>2026-04-02T13:28:15.002Z</time></trkpt><trkpt lat="41.9703631" lon="13.5417063"><ele>652.6666666666666</ele><time>2026-04-02T13:28:16.001Z</time></trkpt><trkpt lat="41.9705172" lon="13.5417038"><ele>653.0</ele><time>2026-04-02T13:28:17.001Z</time></trkpt><trkpt lat="41.9711374" lon="13.5416772"><ele>653.0</ele><time>2026-04-02T13:28:21.002Z</time></trkpt><trkpt lat="41.971446" lon="13.5416692"><ele>653.0</ele><time>2026-04-02T13:28:23.002Z</time></trkpt><trkpt lat="41.9717526" lon="13.5416573"><ele>652.0</ele><time>2026-04-02T13:28:25.002Z</time></trkpt><trkpt lat="41.9725376" lon="13.541642"><ele>652.0</ele><time>2026-04-02T13:28:30.001Z</time></trkpt><trkpt lat="41.9726987" lon="13.5416384"><ele>652.0</ele><time>2026-04-02T13:28:31.002Z</time></trkpt><trkpt lat="41.9730141" lon="13.5416287"><ele>652.0</ele><time>2026-04-02T13:28:33.002Z</time></trkpt><trkpt lat="41.9734779" lon="13.5416188"><ele>652.0</ele><time>2026-04-02T13:28:36.002Z</time></trkpt><trkpt lat="41.9739406" lon="13.541605"><ele>652.0</ele><time>2026-04-02T13:28:39.002Z</time></trkpt><trkpt lat="41.9740928" lon="13.5415996"><ele>652.0</ele><time>2026-04-02T13:28:40.002Z</time></trkpt><trkpt lat="41.974245" lon="13.5415945"><ele>652.0</ele><time>2026-04-02T13:28:41.002Z</time></trkpt><trkpt lat="41.9744017" lon="13.5415924"><ele>652.5</ele><time>2026-04-02T13:28:42.002Z</time></trkpt><trkpt lat="41.9745544" lon="13.5415875"><ele>653.0</ele><time>2026-04-02T13:28:43.001Z</time></trkpt><trkpt lat="41.9748657" lon="13.5415784"><ele>652.5</ele><time>2026-04-02T13:28:45.002Z</time></trkpt><trkpt lat="41.9750244" lon="13.5415723"><ele>652.0</ele><time>2026-04-02T13:28:46.002Z</time></trkpt><trkpt lat="41.9753417" lon="13.5415649"><ele>652.0</ele><time>2026-04-02T13:28:48.002Z</time></trkpt><trkpt lat="41.9756675" lon="13.541556"><ele>652.0</ele><time>2026-04-02T13:28:50.002Z</time></trkpt><trkpt lat="41.9758307" lon="13.541552"><ele>651.6666666666667</ele><time>2026-04-02T13:28:51.002Z</time></trkpt><trkpt lat="41.9759991" lon="13.5415473"><ele>651.3333333333334</ele><time>2026-04-02T13:28:52.001Z</time></trkpt><trkpt lat="41.976165" lon="13.5415379"><ele>651.0</ele><time>2026-04-02T13:28:53.002Z</time></trkpt><trkpt lat="41.9764974" lon="13.541529"><ele>652.0</ele><time>2026-04-02T13:28:55.002Z</time></trkpt><trkpt lat="41.9771677" lon="13.5415198"><ele>652.0</ele><time>2026-04-02T13:28:59.002Z</time></trkpt><trkpt lat="41.9775102" lon="13.5415109"><ele>652.0</ele><time>2026-04-02T13:29:01.001Z</time></trkpt><trkpt lat="41.9776783" lon="13.5415046"><ele>651.0</ele><time>2026-04-02T13:29:02.002Z</time></trkpt><trkpt lat="41.9781854" lon="13.5414942"><ele>651.0</ele><time>2026-04-02T13:29:05.002Z</time></trkpt><trkpt lat="41.9783557" lon="13.5414874"><ele>651.0</ele><time>2026-04-02T13:29:06.001Z</time></trkpt><trkpt lat="41.9785242" lon="13.541479"><ele>651.0</ele><time>2026-04-02T13:29:07.002Z</time></trkpt><trkpt lat="41.979214" lon="13.5414601"><ele>651.0</ele><time>2026-04-02T13:29:11.002Z</time></trkpt><trkpt lat="41.9795589" lon="13.5414519"><ele>651.0</ele><time>2026-04-02T13:29:13.002Z</time></trkpt><trkpt lat="41.9797365" lon="13.5414493"><ele>651.0</ele><time>2026-04-02T13:29:14.002Z</time></trkpt><trkpt lat="41.979908" lon="13.5414472"><ele>651.0</ele><time>2026-04-02T13:29:15.002Z</time></trkpt><trkpt lat="41.9800796" lon="13.541443"><ele>651.0</ele><time>2026-04-02T13:29:16.001Z</time></trkpt><trkpt lat="41.9804266" lon="13.5414348"><ele>651.0</ele><time>2026-04-02T13:29:18.002Z</time></trkpt><trkpt lat="41.9806043" lon="13.5414285"><ele>651.0</ele><time>2026-04-02T13:29:19.002Z</time></trkpt><trkpt lat="41.9809525" lon="13.5414134"><ele>651.0</ele><time>2026-04-02T13:29:21.002Z</time></trkpt><trkpt lat="41.9814727" lon="13.5413968"><ele>651.0</ele><time>2026-04-02T13:29:24.001Z</time></trkpt><trkpt lat="41.9818196" lon="13.5413857"><ele>651.0</ele><time>2026-04-02T13:29:26.002Z</time></trkpt><trkpt lat="41.9823375" lon="13.541367"><ele>652.0</ele><time>2026-04-02T13:29:29.002Z</time></trkpt><trkpt lat="41.9828527" lon="13.54135"><ele>652.0</ele><time>2026-04-02T13:29:32.002Z</time></trkpt><trkpt lat="41.9830216" lon="13.5413465"><ele>652.0</ele><time>2026-04-02T13:29:33.002Z</time></trkpt><trkpt lat="41.9833618" lon="13.5413395"><ele>651.5</ele><time>2026-04-02T13:29:35.002Z</time></trkpt><trkpt lat="41.9835279" lon="13.5413338"><ele>651.0</ele><time>2026-04-02T13:29:36.002Z</time></trkpt><trkpt lat="41.9838649" lon="13.5413193"><ele>651.0</ele><time>2026-04-02T13:29:38.002Z</time></trkpt><trkpt lat="41.9840359" lon="13.5413195"><ele>651.0</ele><time>2026-04-02T13:29:39.002Z</time></trkpt><trkpt lat="41.9843727" lon="13.5413125"><ele>651.0</ele><time>2026-04-02T13:29:41.001Z</time></trkpt><trkpt lat="41.9845427" lon="13.541308"><ele>651.0</ele><time>2026-04-02T13:29:42.001Z</time></trkpt><trkpt lat="41.9847114" lon="13.5413048"><ele>651.0</ele><time>2026-04-02T13:29:43.001Z</time></trkpt><trkpt lat="41.9853837" lon="13.5412964"><ele>651.0</ele><time>2026-04-02T13:29:47.002Z</time></trkpt><trkpt lat="41.98555" lon="13.5412944"><ele>651.0</ele><time>2026-04-02T13:29:48.001Z</time></trkpt><trkpt lat="41.9857195" lon="13.5412881"><ele>651.0</ele><time>2026-04-02T13:29:49.002Z</time></trkpt><trkpt lat="41.9858864" lon="13.5412828"><ele>651.0</ele><time>2026-04-02T13:29:50.002Z</time></trkpt><trkpt lat="41.9862233" lon="13.5412701"><ele>651.0</ele><time>2026-04-02T13:29:52.002Z</time></trkpt><trkpt lat="41.9865603" lon="13.5412633"><ele>651.0</ele><time>2026-04-02T13:29:54.002Z</time></trkpt><trkpt lat="41.986728" lon="13.5412609"><ele>651.0</ele><time>2026-04-02T13:29:55.002Z</time></trkpt><trkpt lat="41.9868981" lon="13.5412567"><ele>651.0</ele><time>2026-04-02T13:29:56.002Z</time></trkpt><trkpt lat="41.987238" lon="13.5412461"><ele>651.5</ele><time>2026-04-02T13:29:58.002Z</time></trkpt><trkpt lat="41.9875745" lon="13.5412369"><ele>652.0</ele><time>2026-04-02T13:30:00.002Z</time></trkpt><trkpt lat="41.9879079" lon="13.5412274"><ele>652.0</ele><time>2026-04-02T13:30:02.002Z</time></trkpt><trkpt lat="41.9880726" lon="13.5412224"><ele>652.0</ele><time>2026-04-02T13:30:03.002Z</time></trkpt><trkpt lat="41.988407" lon="13.5412098"><ele>651.5</ele><time>2026-04-02T13:30:05.002Z</time></trkpt><trkpt lat="41.9885766" lon="13.5412116"><ele>651.0</ele><time>2026-04-02T13:30:06.002Z</time></trkpt><trkpt lat="41.9889166" lon="13.541202"><ele>650.5</ele><time>2026-04-02T13:30:08.002Z</time></trkpt><trkpt lat="41.9892539" lon="13.5411955"><ele>650.0</ele><time>2026-04-02T13:30:10.002Z</time></trkpt><trkpt lat="41.9899312" lon="13.5411741"><ele>650.0</ele><time>2026-04-02T13:30:14.001Z</time></trkpt><trkpt lat="41.9900962" lon="13.5411691"><ele>650.0</ele><time>2026-04-02T13:30:15.002Z</time></trkpt><trkpt lat="41.9904279" lon="13.541152"><ele>652.0</ele><time>2026-04-02T13:30:17.002Z</time></trkpt><trkpt lat="41.9910926" lon="13.5411313"><ele>652.0</ele><time>2026-04-02T13:30:21.002Z</time></trkpt><trkpt lat="41.9912638" lon="13.5411308"><ele>652.0</ele><time>2026-04-02T13:30:22.002Z</time></trkpt><trkpt lat="41.9915904" lon="13.5411187"><ele>652.0</ele><time>2026-04-02T13:30:24.002Z</time></trkpt><trkpt lat="41.9917601" lon="13.5411172"><ele>652.0</ele><time>2026-04-02T13:30:25.001Z</time></trkpt><trkpt lat="41.9919279" lon="13.5411141"><ele>652.0</ele><time>2026-04-02T13:30:26.002Z</time></trkpt><trkpt lat="41.9920928" lon="13.5411034"><ele>652.0</ele><time>2026-04-02T13:30:27.002Z</time></trkpt><trkpt lat="41.9922536" lon="13.5410997"><ele>652.0</ele><time>2026-04-02T13:30:28.002Z</time></trkpt><trkpt lat="41.9924156" lon="13.5410945"><ele>652.0</ele><time>2026-04-02T13:30:29.001Z</time></trkpt><trkpt lat="41.9925787" lon="13.5411037"><ele>651.6666666666667</ele><time>2026-04-02T13:30:30.002Z</time></trkpt><trkpt lat="41.9927378" lon="13.5410994"><ele>651.3333333333334</ele><time>2026-04-02T13:30:31.002Z</time></trkpt><trkpt lat="41.9929037" lon="13.5410894"><ele>651.0</ele><time>2026-04-02T13:30:32.002Z</time></trkpt><trkpt lat="41.9930509" lon="13.5410884"><ele>651.0</ele><time>2026-04-02T13:30:33.002Z</time></trkpt><trkpt lat="41.9931921" lon="13.5410854"><ele>651.0</ele><time>2026-04-02T13:30:34.002Z</time></trkpt><trkpt lat="41.9933337" lon="13.5410832"><ele>651.0</ele><time>2026-04-02T13:30:35.001Z</time></trkpt><trkpt lat="41.9934727" lon="13.541079"><ele>651.0</ele><time>2026-04-02T13:30:36.002Z</time></trkpt><trkpt lat="41.993611" lon="13.5410752"><ele>651.25</ele><time>2026-04-02T13:30:37.002Z</time></trkpt><trkpt lat="41.9937426" lon="13.541075"><ele>651.5</ele><time>2026-04-02T13:30:38.001Z</time></trkpt><trkpt lat="41.9938692" lon="13.541074"><ele>651.75</ele><time>2026-04-02T13:30:39.002Z</time></trkpt><trkpt lat="41.9939897" lon="13.5410743"><ele>652.0</ele><time>2026-04-02T13:30:40.001Z</time></trkpt><trkpt lat="41.9941051" lon="13.5410726"><ele>651.75</ele><time>2026-04-02T13:30:41.002Z</time></trkpt><trkpt lat="41.9942266" lon="13.5410693"><ele>651.5</ele><time>2026-04-02T13:30:42.002Z</time></trkpt><trkpt lat="41.9943394" lon="13.5410705"><ele>651.25</ele><time>2026-04-02T13:30:43.002Z</time></trkpt><trkpt lat="41.9944502" lon="13.5410677"><ele>651.0</ele><time>2026-04-02T13:30:44.001Z</time></trkpt><trkpt lat="41.9945578" lon="13.5410668"><ele>651.0</ele><time>2026-04-02T13:30:45.002Z</time></trkpt><trkpt lat="41.9946541" lon="13.5410624"><ele>651.0</ele><time>2026-04-02T13:30:46.002Z</time></trkpt><trkpt lat="41.9947475" lon="13.5410594"><ele>651.0</ele><time>2026-04-02T13:30:47.002Z</time></trkpt><trkpt lat="41.9948327" lon="13.541056"><ele>651.0</ele><time>2026-04-02T13:30:48.002Z</time></trkpt><trkpt lat="41.9949099" lon="13.5410531"><ele>651.0</ele><time>2026-04-02T13:30:49.002Z</time></trkpt><trkpt lat="41.9949895" lon="13.541049"><ele>651.0</ele><time>2026-04-02T13:30:50.002Z</time></trkpt><trkpt lat="41.9950657" lon="13.5410431"><ele>651.1428571428571</ele><time>2026-04-02T13:30:51.002Z</time></trkpt><trkpt lat="41.995139" lon="13.5410411"><ele>651.2857142857142</ele><time>2026-04-02T13:30:52.002Z</time></trkpt><trkpt lat="41.9952057" lon="13.5410539"><ele>651.4285714285714</ele><time>2026-04-02T13:30:53.002Z</time></trkpt><trkpt lat="41.9952743" lon="13.5410762"><ele>651.5714285714286</ele><time>2026-04-02T13:30:54.002Z</time></trkpt><trkpt lat="41.9953222" lon="13.541133"><ele>651.7142857142857</ele><time>2026-04-02T13:30:55.002Z</time></trkpt><trkpt lat="41.9953718" lon="13.5411888"><ele>651.8571428571429</ele><time>2026-04-02T13:30:56.002Z</time></trkpt><trkpt lat="41.9954284" lon="13.5412332"><ele>652.0</ele><time>2026-04-02T13:30:57.002Z</time></trkpt><trkpt lat="41.9954907" lon="13.5412566"><ele>652.0</ele><time>2026-04-02T13:30:58.002Z</time></trkpt><trkpt lat="41.9955537" lon="13.5412393"><ele>652.0</ele><time>2026-04-02T13:30:59.002Z</time></trkpt><trkpt lat="41.9956414" lon="13.5411312"><ele>652.0</ele><time>2026-04-02T13:31:01.002Z</time></trkpt><trkpt lat="41.9956627" lon="13.5409796"><ele>652.0</ele><time>2026-04-02T13:31:03.001Z</time></trkpt><trkpt lat="41.9956083" lon="13.5408394"><ele>652.0</ele><time>2026-04-02T13:31:05.002Z</time></trkpt><trkpt lat="41.9955484" lon="13.5407921"><ele>652.0</ele><time>2026-04-02T13:31:06.002Z</time></trkpt><trkpt lat="41.9954847" lon="13.5407661"><ele>652.0</ele><time>2026-04-02T13:31:07.002Z</time></trkpt><trkpt lat="41.9954121" lon="13.5407896"><ele>652.0</ele><time>2026-04-02T13:31:08.002Z</time></trkpt><trkpt lat="41.9953474" lon="13.5408314"><ele>652.0</ele><time>2026-04-02T13:31:09.001Z</time></trkpt><trkpt lat="41.9952855" lon="13.5408821"><ele>652.0</ele><time>2026-04-02T13:31:10.001Z</time></trkpt><trkpt lat="41.9952191" lon="13.5409294"><ele>652.0</ele><time>2026-04-02T13:31:11.002Z</time></trkpt><trkpt lat="41.9951546" lon="13.5409689"><ele>652.0</ele><time>2026-04-02T13:31:12.002Z</time></trkpt><trkpt lat="41.9950844" lon="13.5409861"><ele>652.0</ele><time>2026-04-02T13:31:13.002Z</time></trkpt><trkpt lat="41.995014" lon="13.5409902"><ele>652.0</ele><time>2026-04-02T13:31:14.002Z</time></trkpt><trkpt lat="41.9949423" lon="13.5409935"><ele>652.0</ele><time>2026-04-02T13:31:15.002Z</time></trkpt><trkpt lat="41.9948678" lon="13.540992"><ele>652.0</ele><time>2026-04-02T13:31:16.002Z</time></trkpt><trkpt lat="41.9947878" lon="13.540991"><ele>652.0</ele><time>2026-04-02T13:31:17.002Z</time></trkpt><trkpt lat="41.9947079" lon="13.5409964"><ele>652.0</ele><time>2026-04-02T13:31:18.002Z</time></trkpt><trkpt lat="41.9946222" lon="13.5410028"><ele>652.0</ele><time>2026-04-02T13:31:19.002Z</time></trkpt><trkpt lat="41.9945368" lon="13.5410038"><ele>652.0</ele><time>2026-04-02T13:31:20.002Z</time></trkpt><trkpt lat="41.9944481" lon="13.541002"><ele>652.0</ele><time>2026-04-02T13:31:21.001Z</time></trkpt><trkpt lat="41.9943581" lon="13.5410027"><ele>652.0</ele><time>2026-04-02T13:31:22.001Z</time></trkpt><trkpt lat="41.9942583" lon="13.5410058"><ele>652.0</ele><time>2026-04-02T13:31:23.001Z</time></trkpt><trkpt lat="41.9941577" lon="13.5410081"><ele>652.0</ele><time>2026-04-02T13:31:24.002Z</time></trkpt><trkpt lat="41.9940529" lon="13.5410084"><ele>652.0</ele><time>2026-04-02T13:31:25.002Z</time></trkpt><trkpt lat="41.9938374" lon="13.5410154"><ele>652.0</ele><time>2026-04-02T13:31:27.002Z</time></trkpt><trkpt lat="41.9937255" lon="13.5410153"><ele>652.0</ele><time>2026-04-02T13:31:28.001Z</time></trkpt><trkpt lat="41.9934774" lon="13.5410227"><ele>652.0</ele><time>2026-04-02T13:31:30.002Z</time></trkpt><trkpt lat="41.9933419" lon="13.5410272"><ele>652.0</ele><time>2026-04-02T13:31:31.002Z</time></trkpt><trkpt lat="41.9932105" lon="13.54103"><ele>652.0</ele><time>2026-04-02T13:31:32.002Z</time></trkpt><trkpt lat="41.9930799" lon="13.541036"><ele>652.0</ele><time>2026-04-02T13:31:33.001Z</time></trkpt><trkpt lat="41.9929432" lon="13.5410387"><ele>652.0</ele><time>2026-04-02T13:31:34.001Z</time></trkpt><trkpt lat="41.9926647" lon="13.54104"><ele>652.0</ele><time>2026-04-02T13:31:36.002Z</time></trkpt><trkpt lat="41.9923708" lon="13.5410495"><ele>652.0</ele><time>2026-04-02T13:31:38.001Z</time></trkpt><trkpt lat="41.992076" lon="13.5410612"><ele>652.0</ele><time>2026-04-02T13:31:40.002Z</time></trkpt><trkpt lat="41.9919251" lon="13.5410672"><ele>652.0</ele><time>2026-04-02T13:31:41.001Z</time></trkpt><trkpt lat="41.9914708" lon="13.5410772"><ele>652.0</ele><time>2026-04-02T13:31:44.002Z</time></trkpt><trkpt lat="41.9911623" lon="13.5410866"><ele>652.0</ele><time>2026-04-02T13:31:46.002Z</time></trkpt><trkpt lat="41.9908492" lon="13.5410972"><ele>651.0</ele><time>2026-04-02T13:31:48.001Z</time></trkpt><trkpt lat="41.9905296" lon="13.5411079"><ele>650.0</ele><time>2026-04-02T13:31:50.002Z</time></trkpt><trkpt lat="41.9902121" lon="13.5411188"><ele>650.0</ele><time>2026-04-02T13:31:52.001Z</time></trkpt><trkpt lat="41.9900517" lon="13.5411263"><ele>650.0</ele><time>2026-04-02T13:31:53.002Z</time></trkpt><trkpt lat="41.9897277" lon="13.5411327"><ele>650.0</ele><time>2026-04-02T13:31:55.002Z</time></trkpt><trkpt lat="41.9892377" lon="13.5411504"><ele>650.5</ele><time>2026-04-02T13:31:58.002Z</time></trkpt><trkpt lat="41.9889078" lon="13.5411573"><ele>651.0</ele><time>2026-04-02T13:32:00.001Z</time></trkpt><trkpt lat="41.9882359" lon="13.5411777"><ele>651.0</ele><time>2026-04-02T13:32:04.001Z</time></trkpt><trkpt lat="41.9880674" lon="13.5411822"><ele>651.0</ele><time>2026-04-02T13:32:05.002Z</time></trkpt><trkpt lat="41.9878975" lon="13.5411845"><ele>651.0</ele><time>2026-04-02T13:32:06.002Z</time></trkpt><trkpt lat="41.9872163" lon="13.5411937"><ele>650.5</ele><time>2026-04-02T13:32:10.002Z</time></trkpt><trkpt lat="41.9868728" lon="13.5412027"><ele>650.0</ele><time>2026-04-02T13:32:12.002Z</time></trkpt><trkpt lat="41.9865332" lon="13.5412134"><ele>650.3333333333333</ele><time>2026-04-02T13:32:14.002Z</time></trkpt><trkpt lat="41.9863612" lon="13.5412217"><ele>650.6666666666666</ele><time>2026-04-02T13:32:15.002Z</time></trkpt><trkpt lat="41.9861894" lon="13.5412296"><ele>651.0</ele><time>2026-04-02T13:32:16.002Z</time></trkpt><trkpt lat="41.9854976" lon="13.5412442"><ele>651.0</ele><time>2026-04-02T13:32:20.002Z</time></trkpt><trkpt lat="41.9851439" lon="13.5412502"><ele>651.0</ele><time>2026-04-02T13:32:22.002Z</time></trkpt><trkpt lat="41.9848022" lon="13.5412625"><ele>651.0</ele><time>2026-04-02T13:32:24.001Z</time></trkpt><trkpt lat="41.984627" lon="13.5412667"><ele>651.0</ele><time>2026-04-02T13:32:25.002Z</time></trkpt><trkpt lat="41.984275" lon="13.5412794"><ele>651.0</ele><time>2026-04-02T13:32:27.002Z</time></trkpt><trkpt lat="41.9841031" lon="13.5412826"><ele>651.0</ele><time>2026-04-02T13:32:28.002Z</time></trkpt><trkpt lat="41.9837484" lon="13.5412903"><ele>651.0</ele><time>2026-04-02T13:32:30.002Z</time></trkpt><trkpt lat="41.983574" lon="13.5412979"><ele>651.0</ele><time>2026-04-02T13:32:31.002Z</time></trkpt><trkpt lat="41.9833977" lon="13.5413074"><ele>651.0</ele><time>2026-04-02T13:32:32.002Z</time></trkpt><trkpt lat="41.9832238" lon="13.5413097"><ele>651.0</ele><time>2026-04-02T13:32:33.002Z</time></trkpt><trkpt lat="41.9828751" lon="13.5413186"><ele>651.0</ele><time>2026-04-02T13:32:35.002Z</time></trkpt><trkpt lat="41.9823484" lon="13.5413276"><ele>651.0</ele><time>2026-04-02T13:32:38.002Z</time></trkpt><trkpt lat="41.9821758" lon="13.5413351"><ele>651.0</ele><time>2026-04-02T13:32:39.002Z</time></trkpt><trkpt lat="41.9819998" lon="13.5413408"><ele>651.0</ele><time>2026-04-02T13:32:40.002Z</time></trkpt><trkpt lat="41.9813012" lon="13.5413776"><ele>651.0</ele><time>2026-04-02T13:32:44.002Z</time></trkpt><trkpt lat="41.9811239" lon="13.5413711"><ele>651.0</ele><time>2026-04-02T13:32:45.002Z</time></trkpt><trkpt lat="41.9809477" lon="13.541369"><ele>651.0</ele><time>2026-04-02T13:32:46.002Z</time></trkpt><trkpt lat="41.9804194" lon="13.5413805"><ele>651.0</ele><time>2026-04-02T13:32:49.002Z</time></trkpt><trkpt lat="41.9800608" lon="13.5413941"><ele>651.0</ele><time>2026-04-02T13:32:51.001Z</time></trkpt><trkpt lat="41.9798845" lon="13.5413975"><ele>651.0</ele><time>2026-04-02T13:32:52.002Z</time></trkpt><trkpt lat="41.9795308" lon="13.5414044"><ele>651.0</ele><time>2026-04-02T13:32:54.002Z</time></trkpt><trkpt lat="41.9790054" lon="13.5414195"><ele>651.0</ele><time>2026-04-02T13:32:57.002Z</time></trkpt><trkpt lat="41.9786511" lon="13.5414313"><ele>651.0</ele><time>2026-04-02T13:32:59.002Z</time></trkpt><trkpt lat="41.9779472" lon="13.5414616"><ele>651.0</ele><time>2026-04-02T13:33:03.002Z</time></trkpt><trkpt lat="41.9775949" lon="13.5414659"><ele>651.0</ele><time>2026-04-02T13:33:05.002Z</time></trkpt><trkpt lat="41.9770694" lon="13.5414757"><ele>651.0</ele><time>2026-04-02T13:33:08.002Z</time></trkpt><trkpt lat="41.9768959" lon="13.5414832"><ele>651.0</ele><time>2026-04-02T13:33:09.002Z</time></trkpt><trkpt lat="41.9767202" lon="13.5414901"><ele>651.0</ele><time>2026-04-02T13:33:10.002Z</time></trkpt><trkpt lat="41.9763667" lon="13.5414917"><ele>651.0</ele><time>2026-04-02T13:33:12.002Z</time></trkpt><trkpt lat="41.9761952" lon="13.5415006"><ele>651.0</ele><time>2026-04-02T13:33:13.002Z</time></trkpt><trkpt lat="41.9760201" lon="13.5415048"><ele>651.0</ele><time>2026-04-02T13:33:14.002Z</time></trkpt><trkpt lat="41.9751403" lon="13.5415335"><ele>651.6666666666666</ele><time>2026-04-02T13:33:19.001Z</time></trkpt><trkpt lat="41.974964" lon="13.5415413"><ele>652.3333333333333</ele><time>2026-04-02T13:33:20.002Z</time></trkpt><trkpt lat="41.9747874" lon="13.541548"><ele>653.0</ele><time>2026-04-02T13:33:21.002Z</time></trkpt><trkpt lat="41.974261" lon="13.5415665"><ele>652.5</ele><time>2026-04-02T13:33:24.001Z</time></trkpt><trkpt lat="41.973911" lon="13.5415757"><ele>652.0</ele><time>2026-04-02T13:33:26.001Z</time></trkpt><trkpt lat="41.973736" lon="13.5415786"><ele>652.0</ele><time>2026-04-02T13:33:27.002Z</time></trkpt><trkpt lat="41.9730314" lon="13.5415929"><ele>652.0</ele><time>2026-04-02T13:33:31.002Z</time></trkpt><trkpt lat="41.9728561" lon="13.5415957"><ele>652.0</ele><time>2026-04-02T13:33:32.002Z</time></trkpt><trkpt lat="41.9725096" lon="13.5416088"><ele>652.0</ele><time>2026-04-02T13:33:34.002Z</time></trkpt><trkpt lat="41.9721613" lon="13.5416147"><ele>652.0</ele><time>2026-04-02T13:33:36.001Z</time></trkpt><trkpt lat="41.9719885" lon="13.5416183"><ele>652.5</ele><time>2026-04-02T13:33:37.002Z</time></trkpt><trkpt lat="41.9716389" lon="13.5416301"><ele>653.0</ele><time>2026-04-02T13:33:39.002Z</time></trkpt><trkpt lat="41.9714654" lon="13.5416352"><ele>653.0</ele><time>2026-04-02T13:33:40.002Z</time></trkpt><trkpt lat="41.9705927" lon="13.5416545"><ele>653.0</ele><time>2026-04-02T13:33:45.002Z</time></trkpt><trkpt lat="41.9704179" lon="13.5416573"><ele>653.0</ele><time>2026-04-02T13:33:46.002Z</time></trkpt><trkpt lat="41.9702452" lon="13.5416631"><ele>653.0</ele><time>2026-04-02T13:33:47.002Z</time></trkpt><trkpt lat="41.9699001" lon="13.5416669"><ele>653.0</ele><time>2026-04-02T13:33:49.002Z</time></trkpt><trkpt lat="41.9697247" lon="13.5416728"><ele>653.0</ele><time>2026-04-02T13:33:50.002Z</time></trkpt><trkpt lat="41.9690353" lon="13.5416983"><ele>653.0</ele><time>2026-04-02T13:33:54.002Z</time></trkpt><trkpt lat="41.9688643" lon="13.5417039"><ele>653.0</ele><time>2026-04-02T13:33:55.002Z</time></trkpt><trkpt lat="41.9686903" lon="13.5417065"><ele>653.0</ele><time>2026-04-02T13:33:56.002Z</time></trkpt><trkpt lat="41.9679999" lon="13.5417239"><ele>653.0</ele><time>2026-04-02T13:34:00.002Z</time></trkpt><trkpt lat="41.9678302" lon="13.5417304"><ele>653.0</ele><time>2026-04-02T13:34:01.002Z</time></trkpt><trkpt lat="41.967154" lon="13.5417474"><ele>653.0</ele><time>2026-04-02T13:34:05.002Z</time></trkpt><trkpt lat="41.9669858" lon="13.5417517"><ele>653.0</ele><time>2026-04-02T13:34:06.002Z</time></trkpt><trkpt lat="41.9666521" lon="13.5417573"><ele>654.0</ele><time>2026-04-02T13:34:08.002Z</time></trkpt><trkpt lat="41.9663122" lon="13.5417662"><ele>655.0</ele><time>2026-04-02T13:34:10.001Z</time></trkpt><trkpt lat="41.9659682" lon="13.5417761"><ele>655.0</ele><time>2026-04-02T13:34:12.002Z</time></trkpt><trkpt lat="41.9654603" lon="13.5417898"><ele>655.0</ele><time>2026-04-02T13:34:15.002Z</time></trkpt><trkpt lat="41.9652946" lon="13.541793"><ele>655.0</ele><time>2026-04-02T13:34:16.002Z</time></trkpt><trkpt lat="41.9651255" lon="13.5417964"><ele>655.0</ele><time>2026-04-02T13:34:17.002Z</time></trkpt><trkpt lat="41.9648006" lon="13.5418111"><ele>655.3333333333334</ele><time>2026-04-02T13:34:19.002Z</time></trkpt><trkpt lat="41.9646446" lon="13.5418135"><ele>655.6666666666666</ele><time>2026-04-02T13:34:20.002Z</time></trkpt><trkpt lat="41.9644934" lon="13.5418153"><ele>656.0</ele><time>2026-04-02T13:34:21.002Z</time></trkpt><trkpt lat="41.9643476" lon="13.5418237"><ele>656.5</ele><time>2026-04-02T13:34:22.001Z</time></trkpt><trkpt lat="41.9639429" lon="13.5418404"><ele>657.0</ele><time>2026-04-02T13:34:25.002Z</time></trkpt><trkpt lat="41.9637091" lon="13.5418465"><ele>657.0</ele><time>2026-04-02T13:34:27.001Z</time></trkpt><trkpt lat="41.9635025" lon="13.5418508"><ele>657.0</ele><time>2026-04-02T13:34:29.002Z</time></trkpt><trkpt lat="41.9632415" lon="13.5418553"><ele>657.0</ele><time>2026-04-02T13:34:32.002Z</time></trkpt><trkpt lat="41.9631441" lon="13.5416046"><ele>657.0</ele><time>2026-04-02T13:34:36.002Z</time></trkpt><trkpt lat="41.9631864" lon="13.5413865"><ele>657.0</ele><time>2026-04-02T13:34:38.002Z</time></trkpt><trkpt lat="41.9633233" lon="13.540688"><ele>657.0</ele><time>2026-04-02T13:34:43.002Z</time></trkpt><trkpt lat="41.9633486" lon="13.5405187"><ele>657.0</ele><time>2026-04-02T13:34:44.002Z</time></trkpt><trkpt lat="41.9633829" lon="13.5403437"><ele>657.0</ele><time>2026-04-02T13:34:45.002Z</time></trkpt><trkpt lat="41.9634388" lon="13.5399915"><ele>657.0</ele><time>2026-04-02T13:34:47.002Z</time></trkpt><trkpt lat="41.9634958" lon="13.5396375"><ele>657.0</ele><time>2026-04-02T13:34:49.002Z</time></trkpt><trkpt lat="41.9635248" lon="13.5394672"><ele>657.0</ele><time>2026-04-02T13:34:50.001Z</time></trkpt><trkpt lat="41.9635771" lon="13.539152"><ele>657.0</ele><time>2026-04-02T13:34:52.002Z</time></trkpt><trkpt lat="41.9636325" lon="13.538848"><ele>657.0</ele><time>2026-04-02T13:34:54.002Z</time></trkpt><trkpt lat="41.9636579" lon="13.5387044"><ele>657.0</ele><time>2026-04-02T13:34:55.002Z</time></trkpt><trkpt lat="41.9636828" lon="13.5385611"><ele>657.0</ele><time>2026-04-02T13:34:56.002Z</time></trkpt><trkpt lat="41.9637108" lon="13.5384257"><ele>657.0</ele><time>2026-04-02T13:34:57.002Z</time></trkpt><trkpt lat="41.9637312" lon="13.5382986"><ele>657.0</ele><time>2026-04-02T13:34:58.002Z</time></trkpt><trkpt lat="41.9637511" lon="13.5381852"><ele>657.0</ele><time>2026-04-02T13:34:59.001Z</time></trkpt><trkpt lat="41.9637666" lon="13.5380558"><ele>657.0</ele><time>2026-04-02T13:35:00.001Z</time></trkpt><trkpt lat="41.9638458" lon="13.5376276"><ele>657.0</ele><time>2026-04-02T13:35:04.001Z</time></trkpt><trkpt lat="41.9638791" lon="13.5374826"><ele>657.0</ele><time>2026-04-02T13:35:07.002Z</time></trkpt></trkseg></trk></gpx>